Terminal Aerodrome Forecast
Issued by NWS

Home | Current Version | Previous Version | Graphics & Text | Print | Product List | Glossary On
Versions: 1 2 3 4 5 6 7 8 9 10 11 12 13 14 15 16 17 18 19 20
083
FTUS43 KBIS 210439 AAC
TAFJMS
TAF AMD
KJMS 210439Z 2105/2124 12010KT 1/2SM FG OVC002
     FM211700 05007KT 1SM -FZDZ BR OVC004=

USA.gov is the U.S. government's official web portal to all federal, state and local government web resources and services.